sensor_id;sensor_type;location;lat;lon;timestamp;P1;durP1;ratioP1;P2;durP2;ratioP2
40012;SDS011;37387;42.672;23.334;2022-12-18T00:00:59;9.2;;;5.5;;
40012;SDS011;37387;42.672;23.334;2022-12-18T00:01:59;8.3;;;5.2;;
40012;SDS011;37387;42.672;23.334;2022-12-18T00:02:59;10.3;;;6.9;;
40012;SDS011;37387;42.672;23.334;2022-12-18T00:04:00;10.3;;;5.7;;
40012;SDS011;37387;42.672;23.334;2022-12-18T00:04:59;10.3;;;6.3;;
40012;SDS011;37387;42.672;23.334;2022-12-18T00:05:59;10.3;;;6.2;;
40012;SDS011;37387;42.672;23.334;2022-12-18T00:06:59;17.0;;;10.1;;
40012;SDS011;37387;42.672;23.334;2022-12-18T00:07:59;17.1;;;9.8;;
40012;SDS011;37387;42.672;23.334;2022-12-18T00:08:59;17.1;;;6.0;;
40012;SDS011;37387;42.672;23.334;2022-12-18T00:09:59;10.5;;;5.9;;
40012;SDS011;37387;42.672;23.334;2022-12-18T00:11:03;8.5;;;5.7;;
40012;SDS011;37387;42.672;23.334;2022-12-18T00:11:58;8.1;;;5.9;;
40012;SDS011;37387;42.672;23.334;2022-12-18T00:12:58;9.4;;;5.8;;
40012;SDS011;37387;42.672;23.334;2022-12-18T00:14:58;8.7;;;5.2;;
40012;SDS011;37387;42.672;23.334;2022-12-18T00:16:01;9.0;;;6.1;;
40012;SDS011;37387;42.672;23.334;2022-12-18T00:16:58;10.4;;;6.8;;
40012;SDS011;37387;42.672;23.334;2022-12-18T00:17:58;8.6;;;5.5;;
40012;SDS011;37387;42.672;23.334;2022-12-18T00:18:58;8.6;;;6.7;;
40012;SDS011;37387;42.672;23.334;2022-12-18T00:19:58;10.7;;;6.6;;
40012;SDS011;37387;42.672;23.334;2022-12-18T00:20:58;10.0;;;6.1;;
40012;SDS011;37387;42.672;23.334;2022-12-18T00:22:58;9.5;;;6.3;;
40012;SDS011;37387;42.672;23.334;2022-12-18T00:23:58;10.9;;;5.1;;
40012;SDS011;37387;42.672;23.334;2022-12-18T00:24:58;8.0;;;7.0;;
40012;SDS011;37387;42.672;23.334;2022-12-18T00:25:58;11.4;;;6.7;;
40012;SDS011;37387;42.672;23.334;2022-12-18T00:26:57;8.9;;;6.0;;
40012;SDS011;37387;42.672;23.334;2022-12-18T00:27:57;8.9;;;6.3;;
40012;SDS011;37387;42.672;23.334;2022-12-18T00:28:58;9.3;;;6.5;;
40012;SDS011;37387;42.672;23.334;2022-12-18T00:29:57;9.8;;;6.4;;
40012;SDS011;37387;42.672;23.334;2022-12-18T00:31:00;9.8;;;6.9;;
40012;SDS011;37387;42.672;23.334;2022-12-18T00:31:57;10.8;;;6.7;;
40012;SDS011;37387;42.672;23.334;2022-12-18T00:32:57;10.4;;;6.6;;
40012;SDS011;37387;42.672;23.334;2022-12-18T00:34:57;9.1;;;6.3;;
40012;SDS011;37387;42.672;23.334;2022-12-18T00:36:00;9.1;;;6.6;;
40012;SDS011;37387;42.672;23.334;2022-12-18T00:36:57;10.3;;;7.0;;
40012;SDS011;37387;42.672;23.334;2022-12-18T00:37:57;10.5;;;6.8;;
40012;SDS011;37387;42.672;23.334;2022-12-18T00:38:57;11.6;;;6.6;;
40012;SDS011;37387;42.672;23.334;2022-12-18T00:39:56;10.4;;;6.8;;
40012;SDS011;37387;42.672;23.334;2022-12-18T00:40:56;10.4;;;7.1;;
40012;SDS011;37387;42.672;23.334;2022-12-18T00:41:56;11.2;;;6.7;;
40012;SDS011;37387;42.672;23.334;2022-12-18T00:42:56;11.5;;;7.2;;
40012;SDS011;37387;42.672;23.334;2022-12-18T00:43:56;10.9;;;7.0;;
40012;SDS011;37387;42.672;23.334;2022-12-18T00:44:56;11.1;;;6.6;;
40012;SDS011;37387;42.672;23.334;2022-12-18T00:45:56;10.0;;;6.5;;
40012;SDS011;37387;42.672;23.334;2022-12-18T00:46:56;10.1;;;6.3;;
40012;SDS011;37387;42.672;23.334;2022-12-18T00:47:56;11.3;;;6.5;;
40012;SDS011;37387;42.672;23.334;2022-12-18T00:48:56;11.3;;;5.7;;
40012;SDS011;37387;42.672;23.334;2022-12-18T00:49:56;8.8;;;5.8;;
40012;SDS011;37387;42.672;23.334;2022-12-18T00:50:56;10.7;;;5.4;;
40012;SDS011;37387;42.672;23.334;2022-12-18T00:51:56;9.4;;;6.2;;
40012;SDS011;37387;42.672;23.334;2022-12-18T00:52:55;9.5;;;6.3;;
40012;SDS011;37387;42.672;23.334;2022-12-18T00:53:55;11.9;;;6.0;;
40012;SDS011;37387;42.672;23.334;2022-12-18T00:54:55;10.2;;;6.1;;
40012;SDS011;37387;42.672;23.334;2022-12-18T00:55:55;9.7;;;6.2;;
40012;SDS011;37387;42.672;23.334;2022-12-18T00:56:55;9.2;;;6.0;;
40012;SDS011;37387;42.672;23.334;2022-12-18T00:58:55;9.2;;;6.5;;
40012;SDS011;37387;42.672;23.334;2022-12-18T00:59:55;9.9;;;6.1;;
40012;SDS011;37387;42.672;23.334;2022-12-18T01:00:55;9.8;;;6.2;;
40012;SDS011;37387;42.672;23.334;2022-12-18T01:01:55;9.8;;;6.9;;
40012;SDS011;37387;42.672;23.334;2022-12-18T01:02:55;11.5;;;6.7;;
40012;SDS011;37387;42.672;23.334;2022-12-18T01:03:55;11.3;;;7.2;;
40012;SDS011;37387;42.672;23.334;2022-12-18T01:04:55;11.9;;;6.2;;
40012;SDS011;37387;42.672;23.334;2022-12-18T01:05:55;10.6;;;5.6;;
40012;SDS011;37387;42.672;23.334;2022-12-18T01:06:54;8.3;;;5.8;;
40012;SDS011;37387;42.672;23.334;2022-12-18T01:07:55;8.9;;;5.9;;
40012;SDS011;37387;42.672;23.334;2022-12-18T01:08:55;10.0;;;6.0;;
40012;SDS011;37387;42.672;23.334;2022-12-18T01:09:54;9.9;;;6.1;;
40012;SDS011;37387;42.672;23.334;2022-12-18T01:10:54;9.7;;;6.0;;
40012;SDS011;37387;42.672;23.334;2022-12-18T01:11:54;8.6;;;6.5;;
40012;SDS011;37387;42.672;23.334;2022-12-18T01:12:54;10.8;;;6.2;;
40012;SDS011;37387;42.672;23.334;2022-12-18T01:13:54;10.6;;;6.4;;
40012;SDS011;37387;42.672;23.334;2022-12-18T01:14:54;10.5;;;6.3;;
40012;SDS011;37387;42.672;23.334;2022-12-18T01:16:54;9.1;;;6.4;;
40012;SDS011;37387;42.672;23.334;2022-12-18T01:17:54;9.1;;;6.8;;
40012;SDS011;37387;42.672;23.334;2022-12-18T01:18:54;11.3;;;6.7;;
40012;SDS011;37387;42.672;23.334;2022-12-18T01:19:54;11.5;;;6.4;;
40012;SDS011;37387;42.672;23.334;2022-12-18T01:20:54;11.5;;;6.6;;
40012;SDS011;37387;42.672;23.334;2022-12-18T01:21:53;11.9;;;6.0;;
40012;SDS011;37387;42.672;23.334;2022-12-18T01:22:53;9.9;;;6.5;;
40012;SDS011;37387;42.672;23.334;2022-12-18T01:23:54;11.1;;;7.1;;
40012;SDS011;37387;42.672;23.334;2022-12-18T01:24:53;11.1;;;6.5;;
40012;SDS011;37387;42.672;23.334;2022-12-18T01:25:53;10.2;;;7.4;;
40012;SDS011;37387;42.672;23.334;2022-12-18T01:26:53;12.2;;;7.3;;
40012;SDS011;37387;42.672;23.334;2022-12-18T01:27:53;12.2;;;6.3;;
40012;SDS011;37387;42.672;23.334;2022-12-18T01:28:53;9.9;;;7.4;;
40012;SDS011;37387;42.672;23.334;2022-12-18T01:29:53;11.9;;;6.7;;
40012;SDS011;37387;42.672;23.334;2022-12-18T01:30:53;11.5;;;6.4;;
40012;SDS011;37387;42.672;23.334;2022-12-18T01:31:54;10.2;;;6.6;;
40012;SDS011;37387;42.672;23.334;2022-12-18T01:32:53;10.2;;;7.8;;
40012;SDS011;37387;42.672;23.334;2022-12-18T01:33:53;13.4;;;8.2;;
40012;SDS011;37387;42.672;23.334;2022-12-18T01:34:52;14.1;;;14.5;;
40012;SDS011;37387;42.672;23.334;2022-12-18T01:35:52;29.4;;;12.9;;
40012;SDS011;37387;42.672;23.334;2022-12-18T01:36:52;22.5;;;8.2;;
40012;SDS011;37387;42.672;23.334;2022-12-18T01:38:53;12.6;;;7.2;;
40012;SDS011;37387;42.672;23.334;2022-12-18T01:39:52;12.6;;;7.3;;
40012;SDS011;37387;42.672;23.334;2022-12-18T01:40:56;11.7;;;7.4;;
40012;SDS011;37387;42.672;23.334;2022-12-18T01:41:52;13.4;;;6.8;;
40012;SDS011;37387;42.672;23.334;2022-12-18T01:42:52;11.4;;;6.6;;
40012;SDS011;37387;42.672;23.334;2022-12-18T01:43:53;11.1;;;7.5;;
40012;SDS011;37387;42.672;23.334;2022-12-18T01:45:52;12.3;;;7.2;;
40012;SDS011;37387;42.672;23.334;2022-12-18T01:46:52;12.3;;;7.6;;
40012;SDS011;37387;42.672;23.334;2022-12-18T01:47:52;12.5;;;7.2;;
40012;SDS011;37387;42.672;23.334;2022-12-18T01:48:52;11.6;;;7.6;;
40012;SDS011;37387;42.672;23.334;2022-12-18T01:49:51;11.9;;;7.7;;
40012;SDS011;37387;42.672;23.334;2022-12-18T01:50:51;11.9;;;7.6;;
40012;SDS011;37387;42.672;23.334;2022-12-18T01:51:51;13.9;;;7.5;;
40012;SDS011;37387;42.672;23.334;2022-12-18T01:52:52;12.8;;;7.2;;
40012;SDS011;37387;42.672;23.334;2022-12-18T01:53:51;11.8;;;7.0;;
40012;SDS011;37387;42.672;23.334;2022-12-18T01:54:51;12.4;;;6.6;;
40012;SDS011;37387;42.672;23.334;2022-12-18T01:55:51;12.2;;;7.5;;
40012;SDS011;37387;42.672;23.334;2022-12-18T01:57:51;12.7;;;7.7;;
40012;SDS011;37387;42.672;23.334;2022-12-18T01:58:53;13.3;;;7.2;;
40012;SDS011;37387;42.672;23.334;2022-12-18T01:59:52;14.4;;;7.6;;
40012;SDS011;37387;42.672;23.334;2022-12-18T02:00:50;13.0;;;6.9;;
40012;SDS011;37387;42.672;23.334;2022-12-18T02:01:50;10.9;;;6.5;;
40012;SDS011;37387;42.672;23.334;2022-12-18T02:02:51;9.8;;;7.3;;
40012;SDS011;37387;42.672;23.334;2022-12-18T02:03:51;11.9;;;7.5;;
40012;SDS011;37387;42.672;23.334;2022-12-18T02:04:50;11.9;;;7.8;;
40012;SDS011;37387;42.672;23.334;2022-12-18T02:05:52;13.4;;;8.1;;
40012;SDS011;37387;42.672;23.334;2022-12-18T02:06:50;13.4;;;8.2;;
40012;SDS011;37387;42.672;23.334;2022-12-18T02:07:53;12.8;;;7.8;;
40012;SDS011;37387;42.672;23.334;2022-12-18T02:08:53;14.7;;;7.4;;
40012;SDS011;37387;42.672;23.334;2022-12-18T02:09:51;14.7;;;7.3;;
40012;SDS011;37387;42.672;23.334;2022-12-18T02:10:52;12.9;;;7.8;;
40012;SDS011;37387;42.672;23.334;2022-12-18T02:11:51;13.3;;;6.8;;
40012;SDS011;37387;42.672;23.334;2022-12-18T02:12:51;13.2;;;7.3;;
40012;SDS011;37387;42.672;23.334;2022-12-18T02:14:52;11.8;;;7.4;;
40012;SDS011;37387;42.672;23.334;2022-12-18T02:15:51;13.1;;;7.5;;
40012;SDS011;37387;42.672;23.334;2022-12-18T02:16:51;12.2;;;7.2;;
40012;SDS011;37387;42.672;23.334;2022-12-18T02:18:50;11.7;;;7.3;;
40012;SDS011;37387;42.672;23.334;2022-12-18T02:19:55;13.2;;;7.2;;
40012;SDS011;37387;42.672;23.334;2022-12-18T02:20:50;13.2;;;7.3;;
40012;SDS011;37387;42.672;23.334;2022-12-18T02:21:50;13.4;;;7.2;;
40012;SDS011;37387;42.672;23.334;2022-12-18T02:22:53;11.6;;;7.0;;
40012;SDS011;37387;42.672;23.334;2022-12-18T02:24:53;12.9;;;6.8;;
40012;SDS011;37387;42.672;23.334;2022-12-18T02:26:48;13.1;;;7.2;;
40012;SDS011;37387;42.672;23.334;2022-12-18T02:27:48;12.4;;;7.1;;
40012;SDS011;37387;42.672;23.334;2022-12-18T02:28:49;10.8;;;7.0;;
40012;SDS011;37387;42.672;23.334;2022-12-18T02:29:49;11.2;;;7.4;;
40012;SDS011;37387;42.672;23.334;2022-12-18T02:30:48;10.5;;;6.6;;
40012;SDS011;37387;42.672;23.334;2022-12-18T02:31:49;10.5;;;6.9;;
40012;SDS011;37387;42.672;23.334;2022-12-18T02:32:49;12.0;;;7.3;;
40012;SDS011;37387;42.672;23.334;2022-12-18T02:33:48;12.0;;;6.4;;
40012;SDS011;37387;42.672;23.334;2022-12-18T02:34:48;9.5;;;7.2;;
40012;SDS011;37387;42.672;23.334;2022-12-18T02:35:48;10.8;;;6.7;;
40012;SDS011;37387;42.672;23.334;2022-12-18T02:36:48;11.4;;;7.0;;
40012;SDS011;37387;42.672;23.334;2022-12-18T02:37:48;11.4;;;7.1;;
40012;SDS011;37387;42.672;23.334;2022-12-18T02:38:47;10.2;;;6.1;;
40012;SDS011;37387;42.672;23.334;2022-12-18T02:39:48;10.8;;;7.0;;
40012;SDS011;37387;42.672;23.334;2022-12-18T02:40:47;11.5;;;6.7;;
40012;SDS011;37387;42.672;23.334;2022-12-18T02:41:47;11.5;;;7.1;;
40012;SDS011;37387;42.672;23.334;2022-12-18T02:42:47;10.2;;;6.4;;
40012;SDS011;37387;42.672;23.334;2022-12-18T02:43:52;10.2;;;6.5;;
40012;SDS011;37387;42.672;23.334;2022-12-18T02:45:47;11.0;;;6.6;;
40012;SDS011;37387;42.672;23.334;2022-12-18T02:46:48;10.1;;;8.3;;
40012;SDS011;37387;42.672;23.334;2022-12-18T02:47:47;12.9;;;8.6;;
40012;SDS011;37387;42.672;23.334;2022-12-18T02:48:47;60.3;;;33.2;;
40012;SDS011;37387;42.672;23.334;2022-12-18T02:49:49;60.3;;;11.0;;
40012;SDS011;37387;42.672;23.334;2022-12-18T02:50:48;18.0;;;6.2;;
40012;SDS011;37387;42.672;23.334;2022-12-18T02:51:48;10.3;;;6.1;;
40012;SDS011;37387;42.672;23.334;2022-12-18T02:52:49;10.9;;;6.7;;
40012;SDS011;37387;42.672;23.334;2022-12-18T02:54:49;11.1;;;6.2;;
40012;SDS011;37387;42.672;23.334;2022-12-18T02:55:49;11.6;;;6.6;;
40012;SDS011;37387;42.672;23.334;2022-12-18T02:56:48;10.9;;;7.1;;
40012;SDS011;37387;42.672;23.334;2022-12-18T02:57:47;13.3;;;8.2;;
40012;SDS011;37387;42.672;23.334;2022-12-18T02:58:47;13.3;;;7.1;;
40012;SDS011;37387;42.672;23.334;2022-12-18T02:59:48;13.1;;;7.4;;
40012;SDS011;37387;42.672;23.334;2022-12-18T03:00:47;12.6;;;6.8;;
40012;SDS011;37387;42.672;23.334;2022-12-18T03:01:47;10.9;;;7.0;;
40012;SDS011;37387;42.672;23.334;2022-12-18T03:02:46;10.9;;;7.7;;
40012;SDS011;37387;42.672;23.334;2022-12-18T03:03:46;12.6;;;7.4;;
40012;SDS011;37387;42.672;23.334;2022-12-18T03:04:47;12.3;;;7.1;;
40012;SDS011;37387;42.672;23.334;2022-12-18T03:05:47;12.3;;;6.5;;
40012;SDS011;37387;42.672;23.334;2022-12-18T03:06:46;12.4;;;7.3;;
40012;SDS011;37387;42.672;23.334;2022-12-18T03:07:46;12.9;;;7.7;;
40012;SDS011;37387;42.672;23.334;2022-12-18T03:08:46;12.9;;;7.2;;
40012;SDS011;37387;42.672;23.334;2022-12-18T03:09:46;11.9;;;7.6;;
40012;SDS011;37387;42.672;23.334;2022-12-18T03:10:45;12.4;;;7.2;;
40012;SDS011;37387;42.672;23.334;2022-12-18T03:11:46;11.9;;;7.3;;
40012;SDS011;37387;42.672;23.334;2022-12-18T03:13:45;11.9;;;7.1;;
40012;SDS011;37387;42.672;23.334;2022-12-18T03:15:45;11.3;;;7.3;;
40012;SDS011;37387;42.672;23.334;2022-12-18T03:16:44;10.8;;;7.7;;
40012;SDS011;37387;42.672;23.334;2022-12-18T03:17:45;12.4;;;7.2;;
40012;SDS011;37387;42.672;23.334;2022-12-18T03:18:45;11.5;;;7.4;;
40012;SDS011;37387;42.672;23.334;2022-12-18T03:19:44;12.1;;;5.8;;
40012;SDS011;37387;42.672;23.334;2022-12-18T03:20:44;11.7;;;7.3;;
40012;SDS011;37387;42.672;23.334;2022-12-18T03:21:45;11.8;;;7.0;;
40012;SDS011;37387;42.672;23.334;2022-12-18T03:22:44;12.5;;;7.6;;
40012;SDS011;37387;42.672;23.334;2022-12-18T03:23:44;12.2;;;7.1;;
40012;SDS011;37387;42.672;23.334;2022-12-18T03:24:44;11.8;;;8.0;;
40012;SDS011;37387;42.672;23.334;2022-12-18T03:25:44;12.9;;;7.4;;
40012;SDS011;37387;42.672;23.334;2022-12-18T03:26:44;11.3;;;6.8;;
40012;SDS011;37387;42.672;23.334;2022-12-18T03:27:44;11.3;;;6.5;;
40012;SDS011;37387;42.672;23.334;2022-12-18T03:28:44;11.5;;;6.9;;
40012;SDS011;37387;42.672;23.334;2022-12-18T03:30:43;11.1;;;7.1;;
40012;SDS011;37387;42.672;23.334;2022-12-18T03:31:45;12.6;;;7.3;;
40012;SDS011;37387;42.672;23.334;2022-12-18T03:32:44;12.0;;;6.8;;
40012;SDS011;37387;42.672;23.334;2022-12-18T03:33:45;12.0;;;6.7;;
40012;SDS011;37387;42.672;23.334;2022-12-18T03:34:43;11.7;;;6.6;;
40012;SDS011;37387;42.672;23.334;2022-12-18T03:35:43;11.0;;;6.5;;
40012;SDS011;37387;42.672;23.334;2022-12-18T03:36:43;14.2;;;7.2;;
40012;SDS011;37387;42.672;23.334;2022-12-18T03:37:42;14.9;;;7.1;;
40012;SDS011;37387;42.672;23.334;2022-12-18T03:38:42;14.9;;;7.0;;
40012;SDS011;37387;42.672;23.334;2022-12-18T03:39:42;12.8;;;6.6;;
40012;SDS011;37387;42.672;23.334;2022-12-18T03:40:47;11.8;;;6.8;;
40012;SDS011;37387;42.672;23.334;2022-12-18T03:41:43;12.2;;;7.3;;
40012;SDS011;37387;42.672;23.334;2022-12-18T03:42:43;11.2;;;7.5;;
40012;SDS011;37387;42.672;23.334;2022-12-18T03:43:43;12.3;;;6.9;;
40012;SDS011;37387;42.672;23.334;2022-12-18T03:44:43;11.8;;;7.4;;
40012;SDS011;37387;42.672;23.334;2022-12-18T03:45:42;11.8;;;7.0;;
40012;SDS011;37387;42.672;23.334;2022-12-18T03:46:43;12.1;;;7.3;;
40012;SDS011;37387;42.672;23.334;2022-12-18T03:47:44;13.7;;;7.2;;
40012;SDS011;37387;42.672;23.334;2022-12-18T03:48:43;13.3;;;6.9;;
40012;SDS011;37387;42.672;23.334;2022-12-18T03:49:45;11.8;;;7.6;;
40012;SDS011;37387;42.672;23.334;2022-12-18T03:50:43;13.7;;;6.8;;
40012;SDS011;37387;42.672;23.334;2022-12-18T03:51:42;11.3;;;6.1;;
40012;SDS011;37387;42.672;23.334;2022-12-18T03:52:42;9.5;;;6.9;;
40012;SDS011;37387;42.672;23.334;2022-12-18T03:53:42;11.0;;;7.0;;
40012;SDS011;37387;42.672;23.334;2022-12-18T03:54:41;11.0;;;7.3;;
40012;SDS011;37387;42.672;23.334;2022-12-18T03:55:41;11.6;;;6.9;;
40012;SDS011;37387;42.672;23.334;2022-12-18T03:56:42;11.8;;;7.0;;
40012;SDS011;37387;42.672;23.334;2022-12-18T03:57:41;11.9;;;7.1;;
40012;SDS011;37387;42.672;23.334;2022-12-18T03:59:41;11.8;;;7.4;;
40012;SDS011;37387;42.672;23.334;2022-12-18T04:00:41;12.2;;;7.5;;
40012;SDS011;37387;42.672;23.334;2022-12-18T04:01:41;13.1;;;7.6;;
40012;SDS011;37387;42.672;23.334;2022-12-18T04:02:42;12.0;;;8.1;;
40012;SDS011;37387;42.672;23.334;2022-12-18T04:03:40;14.8;;;7.1;;
40012;SDS011;37387;42.672;23.334;2022-12-18T04:04:40;12.0;;;6.9;;
40012;SDS011;37387;42.672;23.334;2022-12-18T04:05:40;12.0;;;7.0;;
40012;SDS011;37387;42.672;23.334;2022-12-18T04:06:40;11.7;;;7.3;;
40012;SDS011;37387;42.672;23.334;2022-12-18T04:07:40;13.9;;;6.6;;
40012;SDS011;37387;42.672;23.334;2022-12-18T04:08:40;11.8;;;7.1;;
40012;SDS011;37387;42.672;23.334;2022-12-18T04:09:40;12.7;;;7.2;;
40012;SDS011;37387;42.672;23.334;2022-12-18T04:10:40;11.7;;;6.3;;
40012;SDS011;37387;42.672;23.334;2022-12-18T04:11:40;12.2;;;8.1;;
40012;SDS011;37387;42.672;23.334;2022-12-18T04:12:40;13.5;;;7.8;;
40012;SDS011;37387;42.672;23.334;2022-12-18T04:13:39;12.8;;;7.6;;
40012;SDS011;37387;42.672;23.334;2022-12-18T04:15:39;12.4;;;8.3;;
40012;SDS011;37387;42.672;23.334;2022-12-18T04:16:39;12.6;;;7.9;;
40012;SDS011;37387;42.672;23.334;2022-12-18T04:17:41;12.6;;;8.0;;
40012;SDS011;37387;42.672;23.334;2022-12-18T04:18:39;13.4;;;7.9;;
40012;SDS011;37387;42.672;23.334;2022-12-18T04:19:39;11.9;;;7.3;;
40012;SDS011;37387;42.672;23.334;2022-12-18T04:20:39;13.2;;;7.9;;
40012;SDS011;37387;42.672;23.334;2022-12-18T04:21:39;13.2;;;7.2;;
40012;SDS011;37387;42.672;23.334;2022-12-18T04:22:39;13.0;;;7.8;;
40012;SDS011;37387;42.672;23.334;2022-12-18T04:23:39;13.0;;;7.0;;
40012;SDS011;37387;42.672;23.334;2022-12-18T04:24:38;12.5;;;7.8;;
40012;SDS011;37387;42.672;23.334;2022-12-18T04:25:38;12.0;;;7.5;;
40012;SDS011;37387;42.672;23.334;2022-12-18T04:28:38;13.7;;;7.3;;
40012;SDS011;37387;42.672;23.334;2022-12-18T04:29:38;12.4;;;7.0;;
40012;SDS011;37387;42.672;23.334;2022-12-18T04:30:38;11.1;;;7.2;;
40012;SDS011;37387;42.672;23.334;2022-12-18T04:31:38;11.9;;;8.0;;
40012;SDS011;37387;42.672;23.334;2022-12-18T04:32:38;12.3;;;7.5;;
40012;SDS011;37387;42.672;23.334;2022-12-18T04:33:38;13.7;;;8.1;;
40012;SDS011;37387;42.672;23.334;2022-12-18T04:34:37;14.1;;;7.1;;
40012;SDS011;37387;42.672;23.334;2022-12-18T04:35:38;11.7;;;7.7;;
40012;SDS011;37387;42.672;23.334;2022-12-18T04:36:37;13.8;;;7.8;;
40012;SDS011;37387;42.672;23.334;2022-12-18T04:37:37;15.4;;;7.7;;
40012;SDS011;37387;42.672;23.334;2022-12-18T04:38:37;15.4;;;8.5;;
40012;SDS011;37387;42.672;23.334;2022-12-18T04:39:37;15.2;;;8.0;;
40012;SDS011;37387;42.672;23.334;2022-12-18T04:40:37;14.2;;;9.1;;
40012;SDS011;37387;42.672;23.334;2022-12-18T04:41:37;18.2;;;12.5;;
40012;SDS011;37387;42.672;23.334;2022-12-18T04:42:37;29.5;;;9.0;;
40012;SDS011;37387;42.672;23.334;2022-12-18T04:43:37;16.3;;;9.1;;
40012;SDS011;37387;42.672;23.334;2022-12-18T04:44:37;16.8;;;8.2;;
40012;SDS011;37387;42.672;23.334;2022-12-18T04:45:37;16.1;;;8.7;;
40012;SDS011;37387;42.672;23.334;2022-12-18T04:46:36;15.6;;;9.0;;
40012;SDS011;37387;42.672;23.334;2022-12-18T04:47:36;15.6;;;8.4;;
40012;SDS011;37387;42.672;23.334;2022-12-18T04:48:36;14.5;;;7.9;;
40012;SDS011;37387;42.672;23.334;2022-12-18T04:49:36;15.8;;;8.4;;
40012;SDS011;37387;42.672;23.334;2022-12-18T04:50:36;14.1;;;8.1;;
40012;SDS011;37387;42.672;23.334;2022-12-18T04:51:36;14.1;;;8.4;;
40012;SDS011;37387;42.672;23.334;2022-12-18T04:52:36;16.4;;;8.8;;
40012;SDS011;37387;42.672;23.334;2022-12-18T04:53:36;15.5;;;8.9;;
40012;SDS011;37387;42.672;23.334;2022-12-18T04:54:36;15.5;;;9.0;;
40012;SDS011;37387;42.672;23.334;2022-12-18T04:55:36;14.3;;;9.4;;
40012;SDS011;37387;42.672;23.334;2022-12-18T04:56:35;16.9;;;8.4;;
40012;SDS011;37387;42.672;23.334;2022-12-18T04:57:35;15.3;;;8.0;;
40012;SDS011;37387;42.672;23.334;2022-12-18T04:58:35;15.4;;;8.5;;
40012;SDS011;37387;42.672;23.334;2022-12-18T04:59:35;17.5;;;9.0;;
40012;SDS011;37387;42.672;23.334;2022-12-18T05:00:35;17.5;;;8.6;;
40012;SDS011;37387;42.672;23.334;2022-12-18T05:01:35;17.1;;;9.1;;
40012;SDS011;37387;42.672;23.334;2022-12-18T05:02:35;17.9;;;8.7;;
40012;SDS011;37387;42.672;23.334;2022-12-18T05:03:35;14.5;;;8.9;;
40012;SDS011;37387;42.672;23.334;2022-12-18T05:04:35;17.8;;;9.3;;
40012;SDS011;37387;42.672;23.334;2022-12-18T05:05:35;16.7;;;9.6;;
40012;SDS011;37387;42.672;23.334;2022-12-18T05:07:35;17.9;;;9.3;;
40012;SDS011;37387;42.672;23.334;2022-12-18T05:08:35;19.0;;;9.2;;
40012;SDS011;37387;42.672;23.334;2022-12-18T05:09:34;19.0;;;9.3;;
40012;SDS011;37387;42.672;23.334;2022-12-18T05:10:34;17.4;;;9.1;;
40012;SDS011;37387;42.672;23.334;2022-12-18T05:11:34;15.8;;;9.5;;
40012;SDS011;37387;42.672;23.334;2022-12-18T05:12:34;18.3;;;9.2;;
40012;SDS011;37387;42.672;23.334;2022-12-18T05:13:35;17.9;;;9.7;;
40012;SDS011;37387;42.672;23.334;2022-12-18T05:14:34;15.4;;;8.9;;
40012;SDS011;37387;42.672;23.334;2022-12-18T05:15:34;15.4;;;9.2;;
40012;SDS011;37387;42.672;23.334;2022-12-18T05:17:34;17.1;;;9.4;;
40012;SDS011;37387;42.672;23.334;2022-12-18T05:18:34;17.3;;;9.1;;
40012;SDS011;37387;42.672;23.334;2022-12-18T05:19:33;18.1;;;9.5;;
40012;SDS011;37387;42.672;23.334;2022-12-18T05:20:33;18.6;;;9.9;;
40012;SDS011;37387;42.672;23.334;2022-12-18T05:21:33;18.0;;;9.3;;
40012;SDS011;37387;42.672;23.334;2022-12-18T05:22:33;18.0;;;8.1;;
40012;SDS011;37387;42.672;23.334;2022-12-18T05:23:33;14.4;;;9.3;;
40012;SDS011;37387;42.672;23.334;2022-12-18T05:25:33;16.3;;;9.8;;
40012;SDS011;37387;42.672;23.334;2022-12-18T05:26:33;16.4;;;9.0;;
40012;SDS011;37387;42.672;23.334;2022-12-18T05:27:33;16.4;;;9.2;;
40012;SDS011;37387;42.672;23.334;2022-12-18T05:28:33;21.6;;;10.7;;
40012;SDS011;37387;42.672;23.334;2022-12-18T05:29:33;22.8;;;10.4;;
40012;SDS011;37387;42.672;23.334;2022-12-18T05:30:33;22.8;;;10.7;;
40012;SDS011;37387;42.672;23.334;2022-12-18T05:31:32;23.8;;;11.6;;
40012;SDS011;37387;42.672;23.334;2022-12-18T05:32:32;22.6;;;10.8;;
40012;SDS011;37387;42.672;23.334;2022-12-18T05:33:33;21.3;;;10.7;;
40012;SDS011;37387;42.672;23.334;2022-12-18T05:34:32;21.3;;;10.9;;
40012;SDS011;37387;42.672;23.334;2022-12-18T05:35:32;20.2;;;9.8;;
40012;SDS011;37387;42.672;23.334;2022-12-18T05:36:32;19.6;;;9.3;;
40012;SDS011;37387;42.672;23.334;2022-12-18T05:37:32;17.7;;;9.8;;
40012;SDS011;37387;42.672;23.334;2022-12-18T05:38:32;19.3;;;11.6;;
40012;SDS011;37387;42.672;23.334;2022-12-18T05:39:32;22.5;;;9.7;;
40012;SDS011;37387;42.672;23.334;2022-12-18T05:40:32;18.5;;;10.2;;
40012;SDS011;37387;42.672;23.334;2022-12-18T05:41:32;17.9;;;9.7;;
40012;SDS011;37387;42.672;23.334;2022-12-18T05:42:31;18.4;;;10.3;;
40012;SDS011;37387;42.672;23.334;2022-12-18T05:43:33;18.3;;;10.9;;
40012;SDS011;37387;42.672;23.334;2022-12-18T05:44:31;20.7;;;11.1;;
40012;SDS011;37387;42.672;23.334;2022-12-18T05:45:31;22.9;;;11.2;;
40012;SDS011;37387;42.672;23.334;2022-12-18T05:46:31;20.1;;;10.3;;
40012;SDS011;37387;42.672;23.334;2022-12-18T05:47:31;19.5;;;10.8;;
40012;SDS011;37387;42.672;23.334;2022-12-18T05:48:31;19.9;;;9.1;;
40012;SDS011;37387;42.672;23.334;2022-12-18T05:49:31;16.8;;;9.7;;
40012;SDS011;37387;42.672;23.334;2022-12-18T05:50:33;17.5;;;9.8;;
40012;SDS011;37387;42.672;23.334;2022-12-18T05:51:31;17.5;;;8.4;;
40012;SDS011;37387;42.672;23.334;2022-12-18T05:52:31;16.5;;;9.7;;
40012;SDS011;37387;42.672;23.334;2022-12-18T05:53:31;18.4;;;9.6;;
40012;SDS011;37387;42.672;23.334;2022-12-18T05:54:30;17.9;;;10.2;;
40012;SDS011;37387;42.672;23.334;2022-12-18T05:55:32;20.1;;;10.5;;
40012;SDS011;37387;42.672;23.334;2022-12-18T05:56:30;21.7;;;11.1;;
40012;SDS011;37387;42.672;23.334;2022-12-18T05:57:30;19.4;;;10.3;;
40012;SDS011;37387;42.672;23.334;2022-12-18T05:58:30;19.4;;;10.5;;
40012;SDS011;37387;42.672;23.334;2022-12-18T05:59:30;19.5;;;10.7;;
40012;SDS011;37387;42.672;23.334;2022-12-18T06:00:30;19.1;;;11.1;;
40012;SDS011;37387;42.672;23.334;2022-12-18T06:01:30;20.6;;;10.7;;
40012;SDS011;37387;42.672;23.334;2022-12-18T06:03:30;21.7;;;11.4;;
40012;SDS011;37387;42.672;23.334;2022-12-18T06:04:29;20.6;;;10.7;;
40012;SDS011;37387;42.672;23.334;2022-12-18T06:05:33;20.6;;;9.5;;
40012;SDS011;37387;42.672;23.334;2022-12-18T06:06:29;19.4;;;10.1;;
40012;SDS011;37387;42.672;23.334;2022-12-18T06:07:29;19.6;;;13.3;;
40012;SDS011;37387;42.672;23.334;2022-12-18T06:08:29;26.0;;;12.0;;
40012;SDS011;37387;42.672;23.334;2022-12-18T06:09:29;23.5;;;10.4;;
40012;SDS011;37387;42.672;23.334;2022-12-18T06:10:29;20.1;;;11.5;;
40012;SDS011;37387;42.672;23.334;2022-12-18T06:13:29;21.9;;;11.2;;
40012;SDS011;37387;42.672;23.334;2022-12-18T06:14:29;23.0;;;11.0;;
40012;SDS011;37387;42.672;23.334;2022-12-18T06:15:28;21.0;;;11.3;;
40012;SDS011;37387;42.672;23.334;2022-12-18T06:16:28;20.2;;;11.1;;
40012;SDS011;37387;42.672;23.334;2022-12-18T06:17:28;21.6;;;10.4;;
40012;SDS011;37387;42.672;23.334;2022-12-18T06:18:28;19.3;;;11.4;;
40012;SDS011;37387;42.672;23.334;2022-12-18T06:19:28;20.6;;;10.9;;
40012;SDS011;37387;42.672;23.334;2022-12-18T06:20:28;21.0;;;11.6;;
40012;SDS011;37387;42.672;23.334;2022-12-18T06:21:28;21.0;;;10.8;;
40012;SDS011;37387;42.672;23.334;2022-12-18T06:22:28;22.0;;;11.1;;
40012;SDS011;37387;42.672;23.334;2022-12-18T06:23:28;22.0;;;11.5;;
40012;SDS011;37387;42.672;23.334;2022-12-18T06:24:28;20.7;;;10.9;;
40012;SDS011;37387;42.672;23.334;2022-12-18T06:25:27;20.4;;;10.5;;
40012;SDS011;37387;42.672;23.334;2022-12-18T06:26:27;21.5;;;10.7;;
40012;SDS011;37387;42.672;23.334;2022-12-18T06:27:27;21.5;;;10.9;;
40012;SDS011;37387;42.672;23.334;2022-12-18T06:28:27;20.5;;;11.0;;